createdAt,value
2023-05-01T00:00:24.579Z,437.6154
2023-05-01T00:01:25.678Z,438.5385
2023-05-01T00:02:26.797Z,440.3077
2023-05-01T00:03:27.878Z,441.5385
2023-05-01T00:04:28.763Z,441.3077
2023-05-01T00:05:29.785Z,440.0000
2023-05-01T00:06:30.926Z,440.0000
2023-05-01T00:07:31.929Z,440.4615
2023-05-01T00:08:32.909Z,442.6154
2023-05-01T00:09:33.945Z,443.3846
2023-05-01T00:10:34.957Z,441.6923
2023-05-01T00:11:36.063Z,441.7692
2023-05-01T00:12:37.155Z,440.0769
2023-05-01T00:13:38.081Z,440.0769
2023-05-01T00:14:39.108Z,431.6923
2023-05-01T00:15:40.159Z,432.7692
2023-05-01T00:16:41.258Z,434.9231
2023-05-01T00:17:42.320Z,436.0769
2023-05-01T00:18:43.259Z,435.7692
2023-05-01T00:19:44.310Z,437.6923
2023-05-01T00:20:45.322Z,441.9231
2023-05-01T00:21:46.459Z,440.6923
2023-05-01T00:22:47.423Z,440.8462
2023-05-01T00:23:48.471Z,442.0000
2023-05-01T00:24:49.482Z,440.6154
2023-05-01T00:25:50.558Z,438.4615
2023-05-01T00:26:51.597Z,437.3077
2023-05-01T00:27:52.651Z,437.9231
2023-05-01T00:28:53.936Z,436.9231
2023-05-01T00:29:54.943Z,440.0000
2023-05-01T00:30:55.732Z,439.5385
2023-05-01T00:31:56.838Z,438.7692
2023-05-01T00:32:57.860Z,437.5385
2023-05-01T00:33:58.913Z,439.0769
2023-05-01T00:34:59.880Z,440.5385
2023-05-01T00:36:00.961Z,441.9231
2023-05-01T00:37:01.957Z,445.0769
2023-05-01T00:38:03.088Z,443.6923
2023-05-01T00:39:04.061Z,442.3846
2023-05-01T00:40:05.100Z,440.6923
2023-05-01T00:41:06.138Z,438.9231
2023-05-01T00:42:07.207Z,439.3846
2023-05-01T00:43:08.237Z,441.0769
2023-05-01T00:44:09.287Z,439.0000
2023-05-01T00:45:10.260Z,435.0769
2023-05-01T00:46:11.376Z,436.0769
2023-05-01T00:47:12.339Z,436.8462
2023-05-01T00:48:13.435Z,436.7692
2023-05-01T00:49:14.437Z,438.8462
2023-05-01T00:50:15.489Z,439.0000
2023-05-01T00:51:16.506Z,439.0769
2023-05-01T00:52:17.565Z,439.9231
2023-05-01T00:53:18.577Z,440.6154
2023-05-01T00:54:19.656Z,437.7692
2023-05-01T00:55:20.645Z,436.8462
2023-05-01T00:56:21.656Z,437.1538
2023-05-01T00:57:22.672Z,440.2308
2023-05-01T00:58:23.750Z,441.1538
2023-05-01T00:59:24.793Z,439.3077
2023-05-01T01:00:25.849Z,437.1538
2023-05-01T01:01:26.973Z,437.2308
2023-05-01T01:02:27.922Z,436.8462
2023-05-01T01:03:29.006Z,436.4615
2023-05-01T01:04:30.074Z,436.6923
2023-05-01T01:05:31.022Z,436.4615
2023-05-01T01:06:32.058Z,439.2308
2023-05-01T01:07:33.094Z,439.7692
2023-05-01T01:08:34.161Z,442.3846
2023-05-01T01:09:35.334Z,443.6154
2023-05-01T01:10:36.161Z,442.0000
2023-05-01T01:11:37.221Z,443.0000
2023-05-01T01:12:38.252Z,442.6923
2023-05-01T01:13:39.301Z,441.3846
2023-05-01T01:14:40.301Z,442.6154
2023-05-01T01:15:41.320Z,444.6923
2023-05-01T01:16:42.354Z,446.3077
2023-05-01T01:17:43.417Z,445.3846
2023-05-01T01:18:44.438Z,446.9231
2023-05-01T01:19:45.490Z,447.3077
2023-05-01T01:20:46.507Z,447.5385
2023-05-01T01:21:47.586Z,446.4615
2023-05-01T01:22:48.514Z,445.5385
2023-05-01T01:23:49.584Z,444.3077
2023-05-01T01:24:50.593Z,442.6923
2023-05-01T01:25:51.652Z,442.6923
2023-05-01T01:26:52.645Z,443.6154
2023-05-01T01:27:53.692Z,444.8462
2023-05-01T01:28:54.765Z,446.1538
2023-05-01T01:29:56.200Z,447.0000
2023-05-01T01:30:56.908Z,449.0000
2023-05-01T01:31:57.825Z,447.2308
2023-05-01T01:32:58.885Z,448.1538
2023-05-01T01:33:59.945Z,449.3077
2023-05-01T01:35:00.934Z,451.0000
2023-05-01T01:36:01.970Z,450.0769
2023-05-01T01:37:02.999Z,451.1538
2023-05-01T01:38:04.016Z,450.6154
2023-05-01T01:39:05.091Z,449.0000
2023-05-01T01:40:06.171Z,448.4615
2023-05-01T01:41:07.174Z,447.0000
2023-05-01T01:42:08.210Z,447.6923
2023-05-01T01:43:09.183Z,448.8462
2023-05-01T01:44:10.274Z,449.6923
2023-05-01T01:45:11.273Z,451.6923
2023-05-01T01:46:12.382Z,451.5385
2023-05-01T01:47:13.356Z,453.1538
2023-05-01T01:48:14.378Z,454.0769
2023-05-01T01:49:15.382Z,453.3846
2023-05-01T01:50:16.537Z,451.6154
2023-05-01T01:51:17.496Z,451.3846
2023-05-01T01:52:18.551Z,452.3077
2023-05-01T01:53:19.590Z,454.1538
2023-05-01T01:54:20.591Z,452.6923
2023-05-01T01:55:21.611Z,453.4615
2023-05-01T01:56:22.658Z,455.3846
2023-05-01T01:57:23.704Z,455.3077
2023-05-01T01:58:24.747Z,456.0769
2023-05-01T01:59:25.742Z,457.0000
2023-05-01T02:00:26.801Z,456.9231
2023-05-01T02:01:27.824Z,453.7692
2023-05-01T02:02:28.980Z,453.7692
2023-05-01T02:03:29.971Z,456.3077
2023-05-01T02:04:30.949Z,455.9231
2023-05-01T02:05:31.939Z,455.3077
2023-05-01T02:06:33.040Z,457.3846
2023-05-01T02:07:34.021Z,457.1538
2023-05-01T02:08:35.120Z,456.5385
2023-05-01T02:09:36.136Z,455.4615
2023-05-01T02:10:37.155Z,455.0769
2023-05-01T02:11:38.194Z,455.9231
2023-05-01T02:12:39.212Z,456.0769
2023-05-01T02:13:40.297Z,456.6154
2023-05-01T02:14:41.345Z,456.1538
2023-05-01T02:15:42.347Z,457.9231
2023-05-01T02:16:43.393Z,460.6154
2023-05-01T02:17:44.407Z,460.2308
2023-05-01T02:18:45.473Z,459.4615
2023-05-01T02:19:46.517Z,456.7692
2023-05-01T02:20:47.542Z,456.6923
2023-05-01T02:21:48.533Z,455.9231
2023-05-01T02:22:49.573Z,458.8462
2023-05-01T02:23:50.623Z,458.5385
2023-05-01T02:24:51.673Z,458.3077
2023-05-01T02:25:52.655Z,457.7692
2023-05-01T02:26:53.693Z,457.6923
2023-05-01T02:27:54.723Z,456.3077
2023-05-01T02:28:55.791Z,455.5385
2023-05-01T02:29:57.150Z,454.6154
2023-05-01T02:30:57.853Z,454.7692
2023-05-01T02:31:59.056Z,452.3846
2023-05-01T02:32:59.958Z,450.5385
2023-05-01T02:34:00.955Z,452.0769
2023-05-01T02:35:02.001Z,452.0769
2023-05-01T02:36:02.977Z,453.0000
2023-05-01T02:37:04.010Z,452.6923
2023-05-01T02:38:05.036Z,453.0000
2023-05-01T02:39:06.136Z,450.6923
2023-05-01T02:40:07.165Z,449.6923
2023-05-01T02:41:08.175Z,449.0769
2023-05-01T02:42:09.233Z,449.1538
2023-05-01T02:43:10.255Z,449.3846
2023-05-01T02:44:11.281Z,452.2308
2023-05-01T02:45:12.314Z,449.5385
2023-05-01T02:46:13.341Z,449.0769
2023-05-01T02:47:14.407Z,449.0000
2023-05-01T02:48:15.381Z,451.3077
2023-05-01T02:49:16.479Z,449.3077
2023-05-01T02:50:17.516Z,448.5385
2023-05-01T02:51:18.504Z,448.2308
2023-05-01T02:52:19.543Z,447.3077
2023-05-01T02:53:20.598Z,447.8462
2023-05-01T02:54:21.633Z,448.8462
2023-05-01T02:55:22.679Z,447.8462
2023-05-01T02:56:23.679Z,449.9231
2023-05-01T02:57:24.743Z,450.6923
2023-05-01T02:58:25.776Z,450.3846
2023-05-01T02:59:26.826Z,451.2308
2023-05-01T03:00:27.869Z,449.8462
2023-05-01T03:01:28.905Z,447.0769
2023-05-01T03:02:29.878Z,445.4615
2023-05-01T03:03:30.942Z,448.3846
2023-05-01T03:04:32.038Z,448.3077
2023-05-01T03:05:33.024Z,448.4615
2023-05-01T03:06:34.073Z,449.0769
2023-05-01T03:07:35.102Z,449.4615
2023-05-01T03:08:36.103Z,449.7692
2023-05-01T03:09:37.158Z,449.6923
2023-05-01T03:10:38.217Z,450.0769
2023-05-01T03:11:39.203Z,449.6154
2023-05-01T03:12:40.257Z,450.5385
2023-05-01T03:13:41.256Z,451.0769
2023-05-01T03:14:42.333Z,449.0769
2023-05-01T03:15:43.338Z,447.6154
2023-05-01T03:16:44.433Z,450.3846
2023-05-01T03:17:45.408Z,448.6154
2023-05-01T03:18:46.441Z,447.9231
2023-05-01T03:19:47.457Z,446.0769
2023-05-01T03:20:48.529Z,444.8462
2023-05-01T03:21:49.519Z,444.5385
2023-05-01T03:22:50.568Z,446.9231
2023-05-01T03:23:51.593Z,449.3846
2023-05-01T03:24:52.668Z,451.4615
2023-05-01T03:25:53.698Z,450.3077
2023-05-01T03:26:54.737Z,448.6154
2023-05-01T03:27:55.713Z,448.8462
2023-05-01T03:28:56.762Z,447.0769
2023-05-01T03:29:58.060Z,448.3846
2023-05-01T03:30:58.876Z,448.6923
2023-05-01T03:31:59.940Z,449.0769
2023-05-01T03:33:00.975Z,450.0000
2023-05-01T03:34:01.918Z,450.0000
2023-05-01T03:35:03.113Z,448.3846
2023-05-01T03:36:04.044Z,447.8462
2023-05-01T03:37:05.061Z,447.0000
2023-05-01T03:38:06.110Z,446.3846
2023-05-01T03:39:07.136Z,447.7692
2023-05-01T03:40:08.184Z,448.1538
2023-05-01T03:41:09.211Z,448.0000
2023-05-01T03:42:10.210Z,449.9231
2023-05-01T03:43:11.273Z,450.0000
2023-05-01T03:44:12.251Z,451.0769
2023-05-01T03:45:13.339Z,451.7692
2023-05-01T03:46:14.421Z,449.2308
2023-05-01T03:47:15.388Z,448.1538
2023-05-01T03:48:16.397Z,447.4615
2023-05-01T03:49:17.469Z,446.1538
2023-05-01T03:50:18.508Z,446.9231
2023-05-01T03:51:19.533Z,446.6154
2023-05-01T03:52:20.508Z,447.9231
2023-05-01T03:53:21.570Z,447.8462
2023-05-01T03:54:22.613Z,446.6154
2023-05-01T03:55:23.675Z,445.1538
2023-05-01T03:56:24.653Z,444.3846
2023-05-01T03:57:25.753Z,444.2308
2023-05-01T03:58:26.721Z,446.2308
2023-05-01T03:59:27.827Z,447.0769
2023-05-01T04:00:28.812Z,446.0769
2023-05-01T04:01:29.873Z,443.7692
2023-05-01T04:02:30.973Z,446.6154
2023-05-01T04:03:31.974Z,449.7692
2023-05-01T04:04:33.049Z,451.6923
2023-05-01T04:05:33.992Z,450.9231
2023-05-01T04:06:35.081Z,450.8462
2023-05-01T04:07:36.056Z,449.6154
2023-05-01T04:08:37.054Z,448.5385
2023-05-01T04:09:38.123Z,447.9231
2023-05-01T04:10:39.163Z,448.1538
2023-05-01T04:11:40.215Z,450.3077
2023-05-01T04:12:41.194Z,450.2308
2023-05-01T04:13:42.322Z,448.6154
2023-05-01T04:14:43.280Z,450.1538
2023-05-01T04:15:44.393Z,451.3846
2023-05-01T04:16:45.359Z,448.0000
2023-05-01T04:17:46.402Z,447.6923
2023-05-01T04:18:47.412Z,447.4615
2023-05-01T04:19:48.464Z,449.9231
2023-05-01T04:20:49.510Z,450.8462
2023-05-01T04:21:50.553Z,450.8462
2023-05-01T04:22:51.518Z,451.6154
2023-05-01T04:23:52.570Z,451.8462
2023-05-01T04:24:53.604Z,453.3846
2023-05-01T04:25:54.729Z,455.2308
2023-05-01T04:26:55.710Z,454.0769
2023-05-01T04:27:56.752Z,452.1538
2023-05-01T04:28:57.757Z,450.1538
2023-05-01T04:29:59.040Z,446.8462
2023-05-01T04:30:59.840Z,446.3846
2023-05-01T04:32:00.984Z,445.3077
2023-05-01T04:33:02.008Z,446.4615
2023-05-01T04:34:02.944Z,447.6154
2023-05-01T04:35:04.319Z,448.0769
2023-05-01T04:36:05.003Z,448.6154
2023-05-01T04:37:06.032Z,449.0769
2023-05-01T04:38:07.089Z,448.9231
2023-05-01T04:39:08.070Z,450.5385
2023-05-01T04:40:11.262Z,452.6154
2023-05-01T04:41:10.148Z,450.9231
2023-05-01T04:42:11.233Z,450.0769
2023-05-01T04:43:12.230Z,449.3077
2023-05-01T04:44:13.258Z,454.0000
2023-05-01T04:45:14.273Z,452.8462
2023-05-01T04:46:15.331Z,451.6154
2023-05-01T04:47:16.367Z,450.3846
2023-05-01T04:48:17.439Z,452.0000
2023-05-01T04:49:18.389Z,452.6154
2023-05-01T04:50:19.455Z,451.3077
2023-05-01T04:51:20.457Z,454.0769
2023-05-01T04:52:21.582Z,453.9231
2023-05-01T04:53:22.602Z,451.6923
2023-05-01T04:54:23.588Z,450.2308
2023-05-01T04:55:24.599Z,450.4615
2023-05-01T04:56:25.662Z,452.3846
2023-05-01T04:57:26.687Z,453.1538
2023-05-01T04:58:27.710Z,449.9231
2023-05-01T04:59:28.752Z,450.6154
2023-05-01T05:00:29.768Z,450.5385
2023-05-01T05:01:30.903Z,449.5385
2023-05-01T05:02:32.128Z,449.2308
2023-05-01T05:03:33.032Z,451.6154
2023-05-01T05:04:34.030Z,452.0769
2023-05-01T05:05:35.008Z,452.7692
2023-05-01T05:06:36.075Z,452.6154
2023-05-01T05:07:37.066Z,452.3077
2023-05-01T05:08:38.130Z,452.4615
2023-05-01T05:09:39.155Z,452.3846
2023-05-01T05:10:40.154Z,450.1538
2023-05-01T05:11:41.217Z,448.8462
2023-05-01T05:12:42.242Z,449.7692
2023-05-01T05:13:43.349Z,451.1538
2023-05-01T05:14:44.350Z,451.6154
2023-05-01T05:15:45.374Z,451.4615
2023-05-01T05:16:46.401Z,450.3846
2023-05-01T05:17:47.463Z,450.0000
2023-05-01T05:18:48.478Z,450.8462
2023-05-01T05:19:49.532Z,451.2308
2023-05-01T05:20:50.523Z,450.7692
2023-05-01T05:21:51.536Z,449.9231
2023-05-01T05:22:52.550Z,451.5385
2023-05-01T05:23:53.655Z,451.0769
2023-05-01T05:24:54.667Z,451.7692
2023-05-01T05:25:55.713Z,455.0769
2023-05-01T05:26:56.730Z,456.4615
2023-05-01T05:27:57.750Z,456.6154
2023-05-01T05:28:58.750Z,455.1538
2023-05-01T05:29:59.858Z,457.0000
2023-05-01T05:31:00.875Z,455.1538
2023-05-01T05:32:01.992Z,456.4615
2023-05-01T05:33:03.025Z,456.6923
2023-05-01T05:34:03.953Z,456.3077
2023-05-01T05:35:04.951Z,454.5385
2023-05-01T05:36:06.053Z,454.3077
2023-05-01T05:37:07.075Z,454.9231
2023-05-01T05:38:08.092Z,452.6154
2023-05-01T05:39:09.116Z,452.0769
2023-05-01T05:40:10.177Z,451.0769
2023-05-01T05:41:11.210Z,453.3077
2023-05-01T05:42:12.248Z,453.8462
2023-05-01T05:43:13.237Z,454.4615
2023-05-01T05:44:14.280Z,455.3846
2023-05-01T05:45:15.282Z,456.0769
2023-05-01T05:46:16.360Z,455.2308
2023-05-01T05:47:17.395Z,455.8462
2023-05-01T05:48:18.405Z,455.7692
2023-05-01T05:49:19.432Z,457.6923
2023-05-01T05:50:20.476Z,459.3846
2023-05-01T05:51:21.523Z,457.8462
2023-05-01T05:52:22.577Z,457.8462
2023-05-01T05:53:25.706Z,456.0769
2023-05-01T05:54:24.637Z,456.7692
2023-05-01T05:55:25.605Z,458.0769
2023-05-01T05:56:26.699Z,459.6154
2023-05-01T05:57:27.697Z,457.3846
2023-05-01T05:58:28.743Z,458.3077
2023-05-01T05:59:29.757Z,458.0769
2023-05-01T06:00:30.892Z,459.0000
2023-05-01T06:01:31.867Z,458.6154
2023-05-01T06:02:33.035Z,457.9231
2023-05-01T06:03:34.100Z,457.9231
2023-05-01T06:04:34.938Z,458.9231
2023-05-01T06:05:35.976Z,459.6923
2023-05-01T06:06:37.124Z,459.9231
2023-05-01T06:07:38.054Z,455.2308
2023-05-01T06:08:39.136Z,456.1538
2023-05-01T06:09:40.178Z,456.7692
2023-05-01T06:10:41.259Z,458.1538
2023-05-01T06:11:42.302Z,457.0769
2023-05-01T06:12:50.005Z,456.4615
2023-05-01T06:13:44.391Z,456.0769
2023-05-01T06:14:45.370Z,456.7692
2023-05-01T06:15:46.466Z,457.3077
2023-05-01T06:16:47.439Z,455.0000
2023-05-01T06:17:48.612Z,456.0000
2023-05-01T06:18:49.538Z,457.0000
2023-05-01T06:19:50.521Z,456.6923
2023-05-01T06:20:51.533Z,458.2308
2023-05-01T06:21:52.598Z,457.3846
2023-05-01T06:22:53.664Z,457.9231
2023-05-01T06:23:54.725Z,457.4615
2023-05-01T06:24:55.697Z,458.9231
2023-05-01T06:25:56.735Z,458.6154
2023-05-01T06:26:58.681Z,458.4615
2023-05-01T06:27:58.854Z,457.4615
2023-05-01T06:28:59.920Z,457.6154
2023-05-01T06:30:00.941Z,456.0000
2023-05-01T06:31:01.815Z,456.9231
2023-05-01T06:32:02.899Z,457.4615
2023-05-01T06:33:03.913Z,456.7692
2023-05-01T06:34:04.951Z,456.6923
2023-05-01T06:35:05.921Z,457.0000
2023-05-01T06:36:06.973Z,456.4615
2023-05-01T06:37:08.024Z,456.5385
2023-05-01T06:38:09.092Z,455.7692
2023-05-01T06:39:10.117Z,456.0769
2023-05-01T06:40:11.135Z,455.2308
2023-05-01T06:41:12.160Z,456.2308
2023-05-01T06:42:13.174Z,454.6923
2023-05-01T06:43:14.248Z,454.6154
2023-05-01T06:44:15.291Z,453.0000
2023-05-01T06:45:16.312Z,454.5385
2023-05-01T06:46:17.388Z,456.1538
2023-05-01T06:47:18.320Z,455.8462
2023-05-01T06:48:19.370Z,456.3077
2023-05-01T06:49:20.411Z,455.5385
2023-05-01T06:50:21.491Z,456.3846
2023-05-01T06:51:22.491Z,456.9231
2023-05-01T06:52:23.537Z,456.3846
2023-05-01T06:53:24.558Z,455.6154
2023-05-01T06:54:25.704Z,455.0769
2023-05-01T06:55:26.671Z,454.1538
2023-05-01T06:56:27.669Z,457.9231
2023-05-01T06:57:28.692Z,456.5385
2023-05-01T06:58:29.753Z,456.1538
2023-05-01T06:59:30.792Z,455.5385
2023-05-01T07:00:31.837Z,454.0000
2023-05-01T07:01:35.322Z,453.1538
2023-05-01T07:02:33.943Z,454.1538
2023-05-01T07:03:35.013Z,452.2308
2023-05-01T07:04:35.976Z,452.2308
2023-05-01T07:05:37.008Z,450.3846
2023-05-01T07:06:38.154Z,452.6154
2023-05-01T07:07:47.280Z,452.7692
2023-05-01T07:08:40.082Z,450.7692
2023-05-01T07:09:41.166Z,448.5385
2023-05-01T07:10:42.496Z,449.6154
2023-05-01T07:11:43.234Z,451.6923
2023-05-01T07:12:44.198Z,453.2308
2023-05-01T07:13:45.260Z,452.9231
2023-05-01T07:14:46.338Z,452.1538
2023-05-01T07:15:47.352Z,452.1538
2023-05-01T07:16:48.490Z,452.3077
2023-05-01T07:17:49.449Z,454.2308
2023-05-01T07:18:50.466Z,453.9231
2023-05-01T07:19:51.495Z,452.3846
2023-05-01T07:20:52.540Z,451.3077
2023-05-01T07:21:53.553Z,451.0000
2023-05-01T07:22:54.587Z,452.3846
2023-05-01T07:23:55.784Z,454.3077
2023-05-01T07:24:56.720Z,452.6154
2023-05-01T07:25:57.713Z,453.7692
2023-05-01T07:26:58.722Z,454.3846
2023-05-01T07:27:59.757Z,455.3077
2023-05-01T07:29:00.796Z,455.9231
2023-05-01T07:30:01.870Z,456.3077
2023-05-01T07:31:02.937Z,456.3846
2023-05-01T07:32:04.088Z,453.8462
2023-05-01T07:33:04.963Z,452.1538
2023-05-01T07:34:05.934Z,452.6923
2023-05-01T07:35:07.009Z,450.2308
2023-05-01T07:36:08.139Z,450.7692
2023-05-01T07:37:09.290Z,450.8462
2023-05-01T07:38:10.076Z,449.8462
2023-05-01T07:39:11.142Z,450.8462
2023-05-01T07:40:12.221Z,453.0000
2023-05-01T07:41:13.213Z,453.3846
2023-05-01T07:42:14.272Z,449.4615
2023-05-01T07:43:15.262Z,449.6923
2023-05-01T07:44:16.304Z,451.7692
2023-05-01T07:45:17.316Z,452.1538
2023-05-01T07:46:18.403Z,452.9231
2023-05-01T07:47:19.468Z,452.7692
2023-05-01T07:48:20.437Z,454.3077
2023-05-01T07:49:21.578Z,455.0000
2023-05-01T07:50:22.483Z,455.2308
2023-05-01T07:51:23.570Z,455.0000
2023-05-01T07:52:24.588Z,454.4615
2023-05-01T07:53:25.619Z,452.3077
2023-05-01T07:54:26.634Z,452.6154
2023-05-01T07:55:27.699Z,455.1538
2023-05-01T07:56:28.738Z,454.5385
2023-05-01T07:57:29.771Z,454.3846
2023-05-01T07:58:30.758Z,452.6923
2023-05-01T07:59:31.821Z,453.2308
2023-05-01T08:00:32.815Z,454.2308
2023-05-01T08:01:33.932Z,452.6154
2023-05-01T08:02:34.978Z,451.1538
2023-05-01T08:03:36.003Z,452.1538
2023-05-01T08:04:37.023Z,452.6923
2023-05-01T08:05:38.148Z,453.1538
2023-05-01T08:06:39.189Z,450.9231
2023-05-01T08:07:40.127Z,453.5385
2023-05-01T08:08:41.149Z,451.6923
2023-05-01T08:09:42.333Z,452.3077
2023-05-01T08:10:43.173Z,449.5385
2023-05-01T08:11:44.209Z,449.3846
2023-05-01T08:12:45.297Z,451.2308
2023-05-01T08:13:46.367Z,450.6154
2023-05-01T08:14:47.309Z,449.8462
2023-05-01T08:15:48.493Z,448.3846
2023-05-01T08:16:49.520Z,447.0769
2023-05-01T08:17:50.678Z,449.1538
2023-05-01T08:18:51.631Z,449.6154
2023-05-01T08:19:52.654Z,449.1538
2023-05-01T08:20:53.639Z,447.5385
2023-05-01T08:21:54.657Z,448.3846
2023-05-01T08:22:55.734Z,449.2308
2023-05-01T08:23:56.773Z,450.6923
2023-05-01T08:24:57.831Z,454.5385
2023-05-01T08:25:58.841Z,454.9231
2023-05-01T08:26:59.876Z,453.8462
2023-05-01T08:28:00.935Z,452.3077
2023-05-01T08:29:02.025Z,452.0769
2023-05-01T08:30:03.006Z,449.9231
2023-05-01T08:31:04.067Z,450.6923
2023-05-01T08:32:04.951Z,450.9231
2023-05-01T08:33:06.183Z,450.6923
2023-05-01T08:34:07.241Z,449.7692
2023-05-01T08:35:08.157Z,450.0000
2023-05-01T08:36:09.199Z,450.1538
2023-05-01T08:37:10.316Z,450.4615
2023-05-01T08:38:11.385Z,451.0000
2023-05-01T08:39:12.436Z,452.3077
2023-05-01T08:40:13.401Z,450.7692
2023-05-01T08:41:14.425Z,447.9231
2023-05-01T08:42:15.460Z,449.3846
2023-05-01T08:43:16.512Z,453.5385
2023-05-01T08:44:17.582Z,453.5385
2023-05-01T08:45:18.499Z,452.5385
2023-05-01T08:46:19.592Z,452.6923
2023-05-01T08:47:20.672Z,451.4615
2023-05-01T08:48:21.674Z,451.3077
2023-05-01T08:49:22.673Z,450.3846
2023-05-01T08:50:23.721Z,451.3846
2023-05-01T08:51:24.714Z,448.0000
2023-05-01T08:52:25.751Z,447.9231
2023-05-01T08:53:26.826Z,446.2308
2023-05-01T08:54:27.870Z,447.0769
2023-05-01T08:55:28.909Z,448.7692
2023-05-01T08:56:29.986Z,448.6923
2023-05-01T08:57:30.915Z,448.6923
2023-05-01T08:58:32.125Z,451.4615
2023-05-01T08:59:33.038Z,451.5385
2023-05-01T09:00:34.041Z,452.6154
2023-05-01T09:01:35.170Z,452.0000
2023-05-01T09:02:36.219Z,450.5385
2023-05-01T09:03:37.260Z,449.9231
2023-05-01T09:04:38.271Z,450.9231
2023-05-01T09:05:39.312Z,452.0769
2023-05-01T09:06:40.388Z,451.3846
2023-05-01T09:07:41.346Z,449.2308
2023-05-01T09:08:42.446Z,449.6923
2023-05-01T09:09:43.513Z,450.0769
2023-05-01T09:10:44.484Z,453.6154
2023-05-01T09:11:45.572Z,454.9231
2023-05-01T09:12:46.550Z,453.9231
2023-05-01T09:13:47.610Z,455.5385
2023-05-01T09:14:48.747Z,456.3846
2023-05-01T09:15:49.676Z,455.2308
2023-05-01T09:16:50.813Z,455.8462
2023-05-01T09:17:51.758Z,455.7692
2023-05-01T09:18:52.768Z,455.9231
2023-05-01T09:19:53.834Z,454.7692
2023-05-01T09:20:54.809Z,453.3077
2023-05-01T09:21:55.867Z,453.7692
2023-05-01T09:22:56.878Z,452.6154
2023-05-01T09:23:57.930Z,452.2308
2023-05-01T09:24:59.028Z,451.4615
2023-05-01T09:26:00.036Z,450.1538
2023-05-01T09:27:01.107Z,450.5385
2023-05-01T09:28:02.053Z,451.1538
2023-05-01T09:29:03.203Z,453.4615
2023-05-01T09:30:04.187Z,452.5385
2023-05-01T09:31:05.150Z,450.2308
2023-05-01T09:32:06.206Z,451.3846
2023-05-01T09:33:07.285Z,449.9231
2023-05-01T09:34:08.299Z,449.6154
2023-05-01T09:35:09.356Z,450.6154
2023-05-01T09:36:10.290Z,448.9231
2023-05-01T09:37:11.385Z,446.8462
2023-05-01T09:38:12.372Z,444.8462
2023-05-01T09:39:13.497Z,445.3077
2023-05-01T09:40:14.568Z,444.0000
2023-05-01T09:41:15.491Z,441.6923
2023-05-01T09:42:16.568Z,443.7692
2023-05-01T09:43:17.556Z,444.1538
2023-05-01T09:44:18.629Z,444.1538
2023-05-01T09:45:19.727Z,443.2308
2023-05-01T09:46:20.708Z,444.1538
2023-05-01T09:47:21.772Z,441.8462
2023-05-01T09:48:22.713Z,441.5385
2023-05-01T09:49:23.784Z,442.3077
2023-05-01T09:50:24.856Z,443.8462
2023-05-01T09:51:25.812Z,443.8462
2023-05-01T09:52:26.815Z,444.3846
2023-05-01T09:53:27.987Z,443.2308
2023-05-01T09:54:28.934Z,444.4615
2023-05-01T09:55:30.032Z,445.0000
2023-05-01T09:56:31.067Z,444.3846
2023-05-01T09:57:32.032Z,442.5385
2023-05-01T09:58:33.056Z,443.3846
2023-05-01T09:59:34.150Z,447.2308
2023-05-01T10:00:35.174Z,446.2308
2023-05-01T10:01:36.248Z,442.7692
2023-05-01T10:02:37.244Z,438.4615
2023-05-01T10:03:38.626Z,440.9231
2023-05-01T10:04:39.295Z,439.9231
2023-05-01T10:05:40.374Z,441.6154
2023-05-01T10:06:41.474Z,442.0000
2023-05-01T10:07:42.505Z,443.1538
2023-05-01T10:08:43.417Z,444.2308
2023-05-01T10:09:44.543Z,442.6154
2023-05-01T10:10:45.564Z,438.3846
2023-05-01T10:11:46.534Z,438.2308
2023-05-01T10:12:47.627Z,440.0769
2023-05-01T10:13:48.602Z,439.6154
2023-05-01T10:14:49.721Z,441.7692
2023-05-01T10:15:50.836Z,442.4615
2023-05-01T10:16:51.794Z,441.1538
2023-05-01T10:17:52.818Z,438.4615
2023-05-01T10:18:53.775Z,439.0000
2023-05-01T10:19:55.227Z,440.3846
2023-05-01T10:20:55.909Z,440.6923
2023-05-01T10:21:56.943Z,440.5385
2023-05-01T10:22:57.984Z,440.0769
2023-05-01T10:23:59.011Z,438.2308
2023-05-01T10:25:00.047Z,438.4615
2023-05-01T10:26:02.508Z,439.4615
2023-05-01T10:27:02.108Z,438.0000
2023-05-01T10:28:03.071Z,437.9231
2023-05-01T10:29:04.122Z,438.6923
2023-05-01T10:30:05.300Z,438.6154
2023-05-01T10:31:06.261Z,436.3846
2023-05-01T10:32:07.219Z,436.0000
2023-05-01T10:33:08.368Z,436.7692
2023-05-01T10:34:09.287Z,432.6154
2023-05-01T10:35:10.390Z,432.1538
2023-05-01T10:36:11.432Z,433.2308
2023-05-01T10:37:12.455Z,432.8462
2023-05-01T10:38:13.426Z,433.2308
2023-05-01T10:39:14.508Z,436.0000
2023-05-01T10:40:15.590Z,437.0000
2023-05-01T10:41:16.588Z,434.0000
2023-05-01T10:42:17.634Z,432.0000
2023-05-01T10:43:18.653Z,432.8462
2023-05-01T10:44:19.717Z,429.5385
2023-05-01T10:45:20.752Z,426.6923
2023-05-01T10:46:21.914Z,430.3077
2023-05-01T10:47:22.808Z,432.7692
2023-05-01T10:48:23.805Z,433.1538
2023-05-01T10:49:24.878Z,433.6154
2023-05-01T10:50:25.952Z,435.6154
2023-05-01T10:51:28.271Z,436.9231
2023-05-01T10:52:27.969Z,434.3846
2023-05-01T10:53:28.986Z,432.0769
2023-05-01T10:54:29.991Z,430.3077
2023-05-01T10:55:31.185Z,431.8462
2023-05-01T10:56:32.164Z,432.7692
2023-05-01T10:57:33.149Z,433.5385
2023-05-01T10:58:34.162Z,432.7692
2023-05-01T10:59:35.275Z,429.3846
2023-05-01T11:00:36.277Z,429.2308
2023-05-01T11:01:37.389Z,432.3077
2023-05-01T11:02:38.336Z,435.3077
2023-05-01T11:03:39.360Z,435.6923
2023-05-01T11:04:40.336Z,435.6923
2023-05-01T11:05:41.582Z,434.9231
2023-05-01T11:06:42.642Z,434.1538
2023-05-01T11:07:43.478Z,434.9231
2023-05-01T11:08:45.544Z,437.1538
2023-05-01T11:09:45.506Z,435.3846
2023-05-01T11:10:46.616Z,433.0000
2023-05-01T11:11:47.674Z,432.2308
2023-05-01T11:12:48.679Z,420.6923
2023-05-01T11:13:49.675Z,423.0000
2023-05-01T11:14:50.697Z,429.6923
2023-05-01T11:15:51.844Z,430.2308
2023-05-01T11:16:52.865Z,430.8462
2023-05-01T11:17:53.911Z,432.5385
2023-05-01T11:18:54.855Z,433.5385
2023-05-01T11:19:55.886Z,436.0769
2023-05-01T11:20:56.944Z,436.6923
2023-05-01T11:21:57.973Z,437.2308
2023-05-01T11:22:59.026Z,438.6154
2023-05-01T11:24:00.023Z,442.6154
2023-05-01T11:25:01.056Z,440.0769
2023-05-01T11:26:02.092Z,438.1538
2023-05-01T11:27:03.187Z,428.3077
2023-05-01T11:28:04.178Z,425.7692
2023-05-01T11:29:05.270Z,429.6923
2023-05-01T11:30:06.226Z,432.0769
2023-05-01T11:31:07.364Z,435.0769
2023-05-01T11:32:08.483Z,436.2308
2023-05-01T11:33:10.964Z,439.7692
2023-05-01T11:34:10.361Z,440.7692
2023-05-01T11:35:11.411Z,440.1538
2023-05-01T11:36:12.457Z,438.1538
2023-05-01T11:37:13.504Z,438.6923
2023-05-01T11:38:14.465Z,439.2308
2023-05-01T11:39:15.557Z,441.6154
2023-05-01T11:40:16.571Z,439.2308
2023-05-01T11:41:19.254Z,435.6154
2023-05-01T11:42:18.721Z,436.6923
2023-05-01T11:43:19.755Z,437.5385
2023-05-01T11:44:20.694Z,435.5385
2023-05-01T11:45:21.772Z,434.3846
2023-05-01T11:46:22.846Z,432.3077
2023-05-01T11:47:23.898Z,434.7692
2023-05-01T11:48:24.843Z,437.3077
2023-05-01T11:49:25.876Z,434.7692
2023-05-01T11:50:26.895Z,434.4615
2023-05-01T11:51:28.048Z,435.0769
2023-05-01T11:52:29.026Z,434.7692
2023-05-01T11:53:30.049Z,435.1538
2023-05-01T11:54:31.039Z,434.9231
2023-05-01T11:55:32.080Z,435.0000
2023-05-01T11:56:33.162Z,434.5385